Time;durP1;ratioP1;P1;durP2;ratioP2;P2;SDS_P1;SDS_P2;PMS_P1;PMS_P2;Temp;Humidity;BMP_temperature;BMP_pressure;BME280_temperature;BME280_humidity;BME280_pressure;Samples;Min_cycle;Max_cycle;Signal;HPM_P1;HPM_P2
2023/09/22 00:00:46;;;;;;;28.42;26.13;;;18.60;99.90;;;;;;5069955;28;20037;-64
2023/09/22 00:03:13;;;;;;;26.58;24.23;;;19.10;99.90;;;;;;5069997;28;20402;-66
2023/09/22 00:05:39;;;;;;;28.20;26.00;;;20.20;99.90;;;;;;5068654;28;20071;-65
2023/09/22 00:08:06;;;;;;;31.55;28.67;;;19.60;99.90;;;;;;5070028;28;20041;-64
2023/09/22 00:10:32;;;;;;;28.83;26.38;;;19.20;99.90;;;;;;5069577;28;20051;-65
2023/09/22 00:12:58;;;;;;;30.55;27.88;;;20.60;99.90;;;;;;5070207;28;20124;-65
2023/09/22 00:15:23;;;;;;;28.80;26.20;;;19.20;99.90;;;;;;5069863;28;20041;-65
2023/09/22 00:17:49;;;;;;;24.00;22.00;;;20.90;99.90;;;;;;5070197;28;20047;-65
2023/09/22 00:20:15;;;;;;;29.52;26.92;;;19.20;99.90;;;;;;5070213;28;20436;-65
2023/09/22 00:22:44;;;;;;;27.13;24.83;;;19.00;99.90;;;;;;5070375;28;20106;-67
2023/09/22 00:25:10;;;;;;;25.58;23.33;;;18.90;99.90;;;;;;5068623;28;20117;-67
2023/09/22 00:27:36;;;;;;;27.42;24.73;;;18.70;99.90;;;;;;5069716;28;20593;-68
2023/09/22 00:30:02;;;;;;;46.15;25.63;;;20.50;99.90;;;;;;5069818;28;20040;-67
2023/09/22 00:32:28;;;;;;;29.27;25.55;;;20.70;99.90;;;;;;5069764;28;20040;-67
2023/09/22 00:34:54;;;;;;;529.83;45.08;;;18.70;99.90;;;;;;5069686;28;20056;-68
2023/09/22 00:37:20;;;;;;;57.05;24.45;;;18.70;99.90;;;;;;5069882;28;20044;-68
2023/09/22 00:39:46;;;;;;;26.58;24.20;;;18.70;99.90;;;;;;5069518;28;20215;-67
2023/09/22 00:42:11;;;;;;;78.43;23.90;;;19.60;99.90;;;;;;5069299;28;20486;-68
2023/09/22 00:44:37;;;;;;;25.50;23.08;;;19.60;99.90;;;;;;5069459;28;20047;-67
2023/09/22 00:47:05;;;;;;;24.10;22.08;;;20.70;99.90;;;;;;5069427;28;20392;-67
2023/09/22 00:49:31;;;;;;;24.10;21.95;;;20.50;99.90;;;;;;5069154;28;20107;-67
2023/09/22 00:51:58;;;;;;;24.83;22.92;;;19.50;99.90;;;;;;5069260;28;20083;-68
2023/09/22 00:54:24;;;;;;;25.30;23.10;;;20.30;99.90;;;;;;5069027;28;20047;-68
2023/09/22 00:56:51;;;;;;;23.85;22.15;;;18.60;99.90;;;;;;5069089;28;20179;-67
2023/09/22 00:59:17;;;;;;;24.08;22.17;;;19.10;99.90;;;;;;5069645;28;20486;-67
2023/09/22 01:01:43;;;;;;;24.27;22.48;;;19.30;99.90;;;;;;5069175;28;20044;-67
2023/09/22 01:04:09;;;;;;;24.73;22.45;;;19.90;99.90;;;;;;5067753;28;20047;-67
2023/09/22 01:06:36;;;;;;;25.45;23.60;;;20.20;99.90;;;;;;5067804;28;20056;-67
2023/09/22 01:09:11;;;;;;;24.08;22.27;;;18.60;99.90;;;;;;5069122;28;20091;-67
2023/09/22 01:11:37;;;;;;;30.40;28.10;;;20.20;99.90;;;;;;5069224;28;20432;-67
2023/09/22 01:14:03;;;;;;;27.05;25.05;;;20.20;99.90;;;;;;5068868;28;20049;-67
2023/09/22 01:16:29;;;;;;;24.75;22.63;;;20.10;99.90;;;;;;5068627;28;20097;-67
2023/09/22 01:18:55;;;;;;;26.10;23.73;;;18.20;99.90;;;;;;5068655;28;20581;-67
2023/09/22 01:21:28;;;;;;;31.42;24.20;;;18.30;99.90;;;;;;5068644;28;20048;-67
2023/09/22 01:23:53;;;;;;;122.18;25.95;;;18.20;99.90;;;;;;5068455;28;20036;-67
2023/09/22 01:26:21;;;;;;;94.00;25.27;;;18.20;99.90;;;;;;5068384;28;20044;-67
2023/09/22 01:28:47;;;;;;;100.20;25.45;;;18.10;99.90;;;;;;5068438;28;20048;-67
2023/09/22 01:31:12;;;;;;;42.78;23.50;;;19.20;99.90;;;;;;5068214;28;20127;-64
2023/09/22 01:33:39;;;;;;;26.67;24.13;;;18.00;99.90;;;;;;5068424;28;20049;-70
2023/09/22 01:36:04;;;;;;;24.02;22.13;;;19.90;99.90;;;;;;5066736;28;20054;-71
2023/09/22 01:38:30;;;;;;;53.22;25.95;;;18.90;99.90;;;;;;5068068;28;20044;-71
2023/09/22 01:40:58;;;;;;;28.02;25.92;;;19.40;99.90;;;;;;5066995;28;20040;-70
2023/09/22 01:43:23;;;;;;;223.20;28.17;;;18.70;99.90;;;;;;5066634;28;20045;-71
2023/09/22 01:45:49;;;;;;;192.13;26.30;;;19.90;99.90;;;;;;5066774;28;20102;-71
2023/09/22 01:48:15;;;;;;;102.05;25.77;;;18.80;99.90;;;;;;5067951;28;20045;-71
2023/09/22 01:50:41;;;;;;;96.28;26.00;;;18.00;99.90;;;;;;5066626;28;20059;-71
2023/09/22 01:53:08;;;;;;;64.45;25.00;;;18.00;99.90;;;;;;5068070;28;20036;-70
2023/09/22 01:55:35;;;;;;;25.15;23.35;;;18.50;99.90;;;;;;5066576;28;20087;-71
2023/09/22 01:58:00;;;;;;;24.35;22.65;;;18.10;99.90;;;;;;5066674;28;20053;-71
2023/09/22 02:00:26;;;;;;;25.90;23.77;;;18.30;99.90;;;;;;5066347;28;20384;-70
2023/09/22 02:02:52;;;;;;;27.30;24.50;;;18.00;99.90;;;;;;5068207;28;20123;-71
2023/09/22 02:05:18;;;;;;;62.25;21.67;;;20.50;99.90;;;;;;5066944;28;20048;-71
2023/09/22 02:07:44;;;;;;;80.80;23.35;;;19.60;99.90;;;;;;5067865;28;20082;-71
2023/09/22 02:10:11;;;;;;;24.50;22.80;;;18.40;99.90;;;;;;5066109;28;20072;-71
2023/09/22 02:12:38;;;;;;;25.13;23.33;;;18.30;99.90;;;;;;5067648;28;20119;-71
2023/09/22 02:15:09;;;;;;;23.23;21.63;;;17.90;99.90;;;;;;5067678;28;20087;-71
2023/09/22 02:17:37;;;;;;;26.27;23.45;;;19.20;99.90;;;;;;5067552;28;20131;-70
2023/09/22 02:20:22;;;;;;;67.88;24.73;;;19.60;99.90;;;;;;5067600;28;20091;-71
2023/09/22 02:22:55;;;;;;;53.17;24.45;;;19.40;99.90;;;;;;5066299;28;20060;-70
2023/09/22 02:25:22;;;;;;;57.90;24.60;;;17.70;99.90;;;;;;5067560;28;20051;-71
2023/09/22 02:27:49;;;;;;;61.15;24.60;;;17.90;99.90;;;;;;5066138;28;20107;-71
2023/09/22 02:30:16;;;;;;;70.18;24.92;;;18.10;99.90;;;;;;5066357;28;20052;-71
2023/09/22 02:32:43;;;;;;;76.53;26.27;;;17.70;99.90;;;;;;5067606;28;20047;-70
2023/09/22 02:35:09;;;;;;;36.10;22.25;;;18.50;99.90;;;;;;5067387;28;20040;-69
2023/09/22 02:37:35;;;;;;;53.60;25.33;;;18.80;99.90;;;;;;5066506;28;20059;-70
2023/09/22 02:40:03;;;;;;;117.35;25.65;;;19.00;99.90;;;;;;5067308;28;20047;-71
2023/09/22 02:42:29;;;;;;;220.40;27.83;;;17.60;99.90;;;;;;5066124;28;20463;-67
2023/09/22 02:44:55;;;;;;;127.30;25.55;;;17.80;99.90;;;;;;5067398;28;20125;-67
2023/09/22 02:47:20;;;;;;;28.83;26.10;;;17.40;99.90;;;;;;5064096;28;20499;-67
2023/09/22 02:49:47;;;;;;;28.20;26.20;;;19.20;99.90;;;;;;5060328;28;20135;-67
2023/09/22 02:52:13;;;;;;;28.05;26.02;;;19.10;99.90;;;;;;5071880;28;20052;-67
2023/09/22 02:54:38;;;;;;;28.20;26.10;;;19.20;99.90;;;;;;5054808;28;20517;-67
2023/09/22 02:57:04;;;;;;;27.27;25.23;;;17.60;99.90;;;;;;5051417;28;20043;-67
2023/09/22 02:59:30;;;;;;;29.13;27.02;;;19.00;99.90;;;;;;5051271;28;20044;-67
2023/09/22 03:01:55;;;;;;;30.58;28.38;;;18.80;99.90;;;;;;5051001;28;20033;-66
2023/09/22 03:04:21;;;;;;;30.90;28.75;;;17.20;99.90;;;;;;5051283;28;20048;-67
2023/09/22 03:06:47;;;;;;;29.77;27.58;;;17.30;99.90;;;;;;5067520;28;20094;-67
2023/09/22 03:09:14;;;;;;;30.85;28.30;;;17.90;99.90;;;;;;5070990;28;20044;-66
2023/09/22 03:11:40;;;;;;;30.05;27.65;;;19.10;99.90;;;;;;5071102;28;20573;-67
2023/09/22 03:14:06;;;;;;;31.20;28.70;;;19.10;99.90;;;;;;5071190;28;20168;-67
2023/09/22 03:16:31;;;;;;;30.10;27.73;;;18.90;99.90;;;;;;5070777;28;20140;-66
2023/09/22 03:18:57;;;;;;;31.95;28.48;;;19.00;99.90;;;;;;5071233;28;20153;-67
2023/09/22 03:21:24;;;;;;;32.92;30.35;;;19.00;99.90;;;;;;5070953;28;20466;-67
2023/09/22 03:23:50;;;;;;;33.08;30.60;;;18.10;99.90;;;;;;5070789;28;20051;-67
2023/09/22 03:26:18;;;;;;;33.05;30.45;;;19.40;99.90;;;;;;5070560;28;20040;-67
2023/09/22 03:28:44;;;;;;;34.08;31.67;;;17.90;99.90;;;;;;5070665;28;20094;-66
2023/09/22 03:31:10;;;;;;;35.00;32.22;;;17.30;99.90;;;;;;5070369;28;20044;-66
2023/09/22 03:33:36;;;;;;;36.05;33.35;;;18.10;99.90;;;;;;5070434;28;20048;-67
2023/09/22 03:36:02;;;;;;;37.55;34.50;;;19.40;99.90;;;;;;5070534;28;20127;-67
2023/09/22 03:38:28;;;;;;;35.00;32.38;;;19.40;99.90;;;;;;5070896;28;20086;-66
2023/09/22 03:41:00;;;;;;;34.83;32.22;;;19.30;99.90;;;;;;5070504;28;20517;-67
2023/09/22 03:43:26;;;;;;;36.38;33.45;;;17.40;99.90;;;;;;5052977;28;20432;-67
2023/09/22 03:45:55;;;;;;;37.95;35.00;;;19.00;99.90;;;;;;5049987;28;20052;-67
2023/09/22 03:48:22;;;;;;;38.55;35.63;;;19.40;99.90;;;;;;5050306;28;20499;-67
2023/09/22 03:50:48;;;;;;;37.22;34.25;;;19.60;99.90;;;;;;5050442;28;20094;-67
2023/09/22 03:53:14;;;;;;;38.28;35.28;;;17.70;99.90;;;;;;5050407;28;20048;-64
2023/09/22 03:55:40;;;;;;;40.55;37.30;;;17.60;99.90;;;;;;5050213;28;20036;-63
2023/09/22 03:58:06;;;;;;;39.25;36.22;;;18.70;99.90;;;;;;5050362;28;20525;-63
2023/09/22 04:00:32;;;;;;;37.35;34.33;;;19.90;99.90;;;;;;5049777;28;20114;-62
2023/09/22 04:02:59;;;;;;;39.50;36.40;;;17.70;99.90;;;;;;5050126;28;20045;-64
2023/09/22 04:05:25;;;;;;;40.20;37.10;;;19.10;99.90;;;;;;5049955;28;20576;-63
2023/09/22 04:07:53;;;;;;;42.30;38.97;;;19.80;99.90;;;;;;5049930;28;20045;-63
2023/09/22 04:10:22;;;;;;;39.15;36.05;;;18.20;99.90;;;;;;5060555;28;20147;-63
2023/09/22 04:12:48;;;;;;;39.50;36.30;;;17.90;99.90;;;;;;5069662;28;20068;-63
2023/09/22 04:15:15;;;;;;;39.53;36.45;;;18.10;99.90;;;;;;5069460;28;20049;-63
2023/09/22 04:17:41;;;;;;;37.28;34.17;;;18.20;99.90;;;;;;5068570;28;20571;-62
2023/09/22 04:20:08;;;;;;;37.88;34.72;;;18.80;99.90;;;;;;5069809;28;20044;-62
2023/09/22 04:22:37;;;;;;;36.80;33.90;;;18.30;99.90;;;;;;5051661;28;20044;-64
2023/09/22 04:25:10;;;;;;;37.63;34.47;;;18.80;99.90;;;;;;5069645;28;20476;-63
2023/09/22 04:27:43;;;;;;;35.50;32.70;;;19.10;99.90;;;;;;5069629;28;20037;-64
2023/09/22 04:30:11;;;;;;;36.90;33.85;;;19.80;99.90;;;;;;5069553;28;20040;-65
2023/09/22 04:32:38;;;;;;;37.10;34.15;;;18.30;99.90;;;;;;5069812;28;20040;-62
2023/09/22 04:35:06;;;;;;;41.35;38.10;;;19.50;99.90;;;;;;5069584;28;20105;-63
2023/09/22 04:37:32;;;;;;;39.35;36.13;;;20.20;99.90;;;;;;5069844;28;20052;-62
2023/09/22 04:39:58;;;;;;;41.22;37.80;;;18.70;99.90;;;;;;5069484;28;20090;-63
2023/09/22 04:42:24;;;;;;;37.58;34.72;;;19.60;99.90;;;;;;5060153;28;20036;-62
2023/09/22 04:44:50;;;;;;;40.13;36.88;;;20.70;99.90;;;;;;5049193;28;20458;-62
2023/09/22 04:47:16;;;;;;;40.90;37.70;;;20.50;99.90;;;;;;5047985;28;20075;-64
2023/09/22 04:49:42;;;;;;;38.30;35.28;;;18.40;99.90;;;;;;5048970;28;20060;-63
2023/09/22 04:52:08;;;;;;;37.83;34.72;;;18.70;99.90;;;;;;5049120;28;20490;-62
2023/09/22 04:54:34;;;;;;;39.25;36.05;;;18.50;99.90;;;;;;5047539;28;20498;-63
2023/09/22 04:56:59;;;;;;;41.22;37.65;;;18.70;99.90;;;;;;5048749;28;20076;-64
2023/09/22 04:59:25;;;;;;;43.00;39.22;;;18.60;99.90;;;;;;5048831;28;20084;-63
2023/09/22 05:01:50;;;;;;;41.65;38.20;;;20.20;99.90;;;;;;5048842;28;20056;-64
2023/09/22 05:04:16;;;;;;;42.00;38.53;;;18.80;99.90;;;;;;5049023;28;20496;-64
2023/09/22 05:06:44;;;;;;;40.88;37.55;;;20.50;99.90;;;;;;5047184;28;20140;-64
2023/09/22 05:09:11;;;;;;;40.88;37.33;;;20.20;99.90;;;;;;5049873;28;20041;-64
2023/09/22 05:11:37;;;;;;;40.58;37.28;;;18.90;99.90;;;;;;5067863;28;20452;-65
2023/09/22 05:14:03;;;;;;;40.75;37.15;;;19.10;99.90;;;;;;5068425;28;20045;-65
2023/09/22 05:16:29;;;;;;;41.03;37.63;;;20.70;99.90;;;;;;5068601;28;20036;-65
2023/09/22 05:18:55;;;;;;;42.20;38.50;;;19.20;99.90;;;;;;5068974;28;20049;-65
2023/09/22 05:21:20;;;;;;;43.22;39.45;;;20.70;99.90;;;;;;5067217;28;20418;-64
2023/09/22 05:23:47;;;;;;;45.97;41.60;;;20.10;99.90;;;;;;5066837;28;20040;-64
2023/09/22 05:26:12;;;;;;;46.88;42.45;;;20.50;99.90;;;;;;5068335;28;20044;-65
2023/09/22 05:28:38;;;;;;;48.20;43.53;;;19.00;99.90;;;;;;5067149;28;20044;-64
2023/09/22 05:31:05;;;;;;;46.22;42.22;;;20.60;99.90;;;;;;5068753;28;20044;-64
2023/09/22 05:33:35;;;;;;;46.80;42.60;;;19.20;99.90;;;;;;5068702;28;20053;-64
2023/09/22 05:36:01;;;;;;;48.05;43.92;;;19.70;99.90;;;;;;5068453;28;20060;-64
2023/09/22 05:38:27;;;;;;;50.13;45.22;;;18.90;99.90;;;;;;5068412;28;20044;-64
2023/09/22 05:40:52;;;;;;;48.45;43.67;;;20.50;99.90;;;;;;5068208;28;20123;-65
2023/09/22 05:43:22;;;;;;;48.83;44.30;;;19.30;99.90;;;;;;5051711;28;20043;-65
2023/09/22 05:45:55;;;;;;;50.03;45.35;;;20.20;99.90;;;;;;5046537;28;20120;-64
2023/09/22 05:48:21;;;;;;;50.63;45.78;;;19.60;99.90;;;;;;5048089;28;20041;-65
2023/09/22 05:50:57;;;;;;;49.72;45.03;;;18.40;99.90;;;;;;5047995;28;20045;-64
2023/09/22 05:53:24;;;;;;;51.80;47.08;;;19.80;99.90;;;;;;5048112;28;20107;-65
2023/09/22 05:56:10;;;;;;;53.55;48.28;;;19.10;99.90;;;;;;5047893;28;20145;-64
2023/09/22 05:58:40;;;;;;;55.42;50.20;;;19.80;99.90;;;;;;5047964;28;20128;-65
2023/09/22 06:01:09;;;;;;;56.92;51.08;;;20.70;99.90;;;;;;5048087;28;20084;-65
2023/09/22 06:03:40;;;;;;;56.17;50.70;;;19.20;99.90;;;;;;5046642;28;20059;-65
2023/09/22 06:06:11;;;;;;;56.22;50.45;;;18.90;99.90;;;;;;5047920;28;20045;-65
2023/09/22 06:08:37;;;;;;;56.88;50.97;;;20.70;99.90;;;;;;5047941;28;20043;-65
2023/09/22 06:11:07;;;;;;;59.58;53.22;;;19.30;99.90;;;;;;5064544;28;20094;-64
2023/09/22 06:13:33;;;;;;;57.63;51.63;;;18.80;99.90;;;;;;5067661;28;20106;-64
2023/09/22 06:16:00;;;;;;;60.25;52.28;;;18.80;99.90;;;;;;5064671;28;20079;-64
2023/09/22 06:18:26;;;;;;;63.58;56.90;;;19.90;99.90;;;;;;5053405;28;20399;-64
2023/09/22 06:20:55;;;;;;;65.07;57.78;;;18.70;99.90;;;;;;5055799;28;20039;-65
2023/09/22 06:23:25;;;;;;;63.28;56.63;;;20.80;99.90;;;;;;5055388;28;20040;-64
2023/09/22 06:25:54;;;;;;;66.38;59.30;;;21.20;99.90;;;;;;5055377;28;20421;-66
2023/09/22 06:28:20;;;;;;;71.97;60.90;;;21.30;99.90;;;;;;5052718;28;20041;-65
2023/09/22 06:30:46;;;;;;;66.47;59.70;;;20.90;99.90;;;;;;5057250;28;20442;-64
2023/09/22 06:33:16;;;;;;;68.45;61.30;;;20.60;99.90;;;;;;5056545;28;20130;-67
2023/09/22 06:35:43;;;;;;;70.95;63.42;;;19.50;99.90;;;;;;5058188;28;20044;-67
2023/09/22 06:38:10;;;;;;;71.70;64.38;;;19.10;99.90;;;;;;5056445;28;20044;-66
2023/09/22 06:40:36;;;;;;;70.25;63.13;;;20.80;99.90;;;;;;5057315;28;20051;-65
2023/09/22 06:43:04;;;;;;;70.35;63.15;;;19.40;99.90;;;;;;5058797;28;20044;-64
2023/09/22 06:45:34;;;;;;;71.32;64.43;;;19.40;99.90;;;;;;5054815;28;20062;-67
2023/09/22 06:48:00;;;;;;;71.13;63.53;;;20.20;99.90;;;;;;5053450;28;20684;-65
2023/09/22 06:50:27;;;;;;;74.97;67.35;;;19.30;99.90;;;;;;5053106;28;20048;-65
2023/09/22 06:52:53;;;;;;;70.68;63.55;;;19.80;99.90;;;;;;5055233;28;20745;-65
2023/09/22 06:55:19;;;;;;;69.75;62.55;;;21.50;99.90;;;;;;5055321;28;20039;-65
2023/09/22 06:57:44;;;;;;;71.22;63.92;;;20.00;99.90;;;;;;5053157;28;20087;-65
2023/09/22 07:00:16;;;;;;;66.43;59.97;;;19.80;99.90;;;;;;5051510;28;20044;-66
2023/09/22 07:02:49;;;;;;;64.70;58.42;;;20.80;99.90;;;;;;5054888;28;20053;-64
2023/09/22 07:05:19;;;;;;;65.75;58.80;;;21.10;99.90;;;;;;5057303;28;20110;-64
2023/09/22 07:07:46;;;;;;;64.10;57.67;;;21.70;99.90;;;;;;5057757;28;20049;-68
2023/09/22 07:10:13;;;;;;;63.08;56.47;;;21.40;99.90;;;;;;5051220;28;20076;-66
2023/09/22 07:12:39;;;;;;;59.80;53.90;;;19.40;99.90;;;;;;5056607;28;20052;-68
2023/09/22 07:15:06;;;;;;;60.35;54.38;;;20.30;99.90;;;;;;5051886;28;20438;-67
2023/09/22 07:17:32;;;;;;;59.35;53.53;;;19.80;99.90;;;;;;5054805;28;20051;-65
2023/09/22 07:20:00;;;;;;;57.72;52.22;;;21.40;99.90;;;;;;5056859;28;20040;-63
2023/09/22 07:22:25;;;;;;;59.63;53.60;;;19.50;99.90;;;;;;5055283;28;20041;-67
2023/09/22 07:24:51;;;;;;;59.65;53.60;;;19.60;99.90;;;;;;5054206;28;20049;-67
2023/09/22 07:27:17;;;;;;;57.22;51.45;;;19.30;99.90;;;;;;5051465;28;20639;-67
2023/09/22 07:29:43;;;;;;;56.40;51.28;;;21.40;99.90;;;;;;5051766;28;20044;-68
2023/09/22 07:32:09;;;;;;;56.22;50.97;;;21.20;99.90;;;;;;5053488;28;20040;-67
2023/09/22 07:34:34;;;;;;;55.50;50.40;;;19.70;99.90;;;;;;5048670;28;20052;-67
2023/09/22 07:37:00;;;;;;;56.38;50.92;;;20.60;99.90;;;;;;5053658;28;20040;-67
2023/09/22 07:39:25;;;;;;;56.70;51.58;;;21.10;99.90;;;;;;5056535;28;20461;-67
2023/09/22 07:41:51;;;;;;;55.70;50.55;;;21.40;99.90;;;;;;5053544;28;20414;-67
2023/09/22 07:44:21;;;;;;;54.85;49.95;;;20.80;99.90;;;;;;5049092;28;20407;-67
2023/09/22 07:46:48;;;;;;;49.50;44.75;;;21.50;99.90;;;;;;5057383;28;20041;-67
2023/09/22 07:49:14;;;;;;;47.33;43.00;;;20.90;99.90;;;;;;5053725;28;20099;-67
2023/09/22 07:51:39;;;;;;;46.55;42.45;;;20.30;99.90;;;;;;5052801;28;20552;-67
2023/09/22 07:54:05;;;;;;;45.08;41.17;;;20.80;99.90;;;;;;5056749;28;20037;-68
2023/09/22 07:56:32;;;;;;;38.83;35.38;;;22.00;99.90;;;;;;5056029;28;20408;-67
2023/09/22 07:58:59;;;;;;;32.95;30.08;;;21.70;99.90;;;;;;5058317;28;20041;-67
2023/09/22 08:01:25;;;;;;;29.92;27.20;;;22.40;99.90;;;;;;5056721;28;20075;-68
2023/09/22 08:03:51;;;;;;;27.95;25.33;;;22.90;99.90;;;;;;5054023;28;20237;-67
2023/09/22 08:06:17;;;;;;;28.65;26.02;;;22.90;99.90;;;;;;5054096;28;20465;-67
2023/09/22 08:08:43;;;;;;;30.55;27.85;;;22.00;99.90;;;;;;5052002;28;20056;-67
2023/09/22 08:11:09;;;;;;;29.00;26.30;;;21.80;99.90;;;;;;5053276;28;20048;-67
2023/09/22 08:13:35;;;;;;;28.95;26.15;;;21.70;99.90;;;;;;5053668;28;20484;-67
2023/09/22 08:16:05;;;;;;;32.38;29.27;;;21.50;99.90;;;;;;5053543;28;20119;-67
2023/09/22 08:18:37;;;;;;;26.27;23.92;;;21.40;99.90;;;;;;5053408;28;20156;-67
2023/09/22 08:21:04;;;;;;;23.83;21.58;;;22.40;99.90;;;;;;5056692;28;20051;-67
2023/09/22 08:23:29;;;;;;;22.48;20.58;;;22.30;99.90;;;;;;5056365;28;20049;-67
2023/09/22 08:25:56;;;;;;;23.95;21.75;;;22.90;99.90;;;;;;5054540;28;20071;-67
2023/09/22 08:28:23;;;;;;;25.42;23.40;;;22.30;99.90;;;;;;5053099;28;20502;-68
2023/09/22 08:30:49;;;;;;;25.30;22.88;;;22.50;99.90;;;;;;5059428;28;20533;-67
2023/09/22 08:33:15;;;;;;;28.30;25.55;;;22.50;99.90;;;;;;5056486;28;21764;-71
2023/09/22 08:35:41;;;;;;;27.70;25.38;;;22.70;99.90;;;;;;5051740;28;20036;-70
2023/09/22 08:38:06;;;;;;;25.75;23.65;;;22.80;99.90;;;;;;5056668;28;20039;-69
2023/09/22 08:40:32;;;;;;;24.60;22.50;;;22.80;99.90;;;;;;5049633;28;21663;-71
2023/09/22 08:42:59;;;;;;;25.30;23.30;;;23.40;99.90;;;;;;5057234;28;20417;-72
2023/09/22 08:45:25;;;;;;;28.77;26.35;;;22.60;99.90;;;;;;5058030;28;20045;-71
2023/09/22 08:47:51;;;;;;;25.33;23.23;;;22.80;99.90;;;;;;5056440;28;20044;-71
2023/09/22 08:50:19;;;;;;;25.50;23.38;;;22.30;99.90;;;;;;5057178;28;20063;-68
2023/09/22 08:52:48;;;;;;;24.98;22.88;;;22.70;99.90;;;;;;5055158;28;20059;-66
2023/09/22 08:55:14;;;;;;;23.88;21.83;;;22.20;99.90;;;;;;5055613;28;20033;-69
2023/09/22 08:57:44;;;;;;;25.17;22.92;;;22.40;99.90;;;;;;5054959;28;20078;-69
2023/09/22 09:00:21;;;;;;;27.08;24.67;;;22.00;99.90;;;;;;5038313;28;20029;-71
2023/09/22 09:02:51;;;;;;;24.42;22.42;;;21.90;99.90;;;;;;5056028;28;20101;-70
2023/09/22 09:05:19;;;;;;;24.60;22.55;;;22.00;99.90;;;;;;5054639;28;20646;-67
2023/09/22 09:07:46;;;;;;;24.98;22.77;;;22.50;99.90;;;;;;5052699;28;20080;-70
2023/09/22 09:10:34;;;;;;;28.05;25.55;;;22.80;99.90;;;;;;5055683;28;20086;-67
2023/09/22 09:13:01;;;;;;;26.75;24.33;;;22.10;99.90;;;;;;5054881;28;20045;-69
2023/09/22 09:15:29;;;;;;;26.08;23.75;;;22.00;99.90;;;;;;5058741;28;20400;-70
2023/09/22 09:18:03;;;;;;;24.92;22.83;;;21.90;99.90;;;;;;5051668;28;20123;-68
2023/09/22 09:20:30;;;;;;;25.20;23.08;;;21.80;99.90;;;;;;5058817;28;20037;-69
2023/09/22 09:22:56;;;;;;;24.30;22.25;;;22.40;99.90;;;;;;5058874;28;20075;-69
2023/09/22 09:25:22;;;;;;;24.40;22.35;;;22.20;99.90;;;;;;5059453;28;20418;-69
2023/09/22 09:28:00;;;;;;;24.67;22.67;;;22.20;99.90;;;;;;5058136;28;20628;-70
2023/09/22 09:30:28;;;;;;;24.02;21.83;;;21.80;99.90;;;;;;5051834;28;20422;-68
2023/09/22 09:33:10;;;;;;;26.98;24.75;;;22.00;99.90;;;;;;5055062;28;20076;-69
2023/09/22 09:35:39;;;;;;;24.23;22.33;;;22.10;99.90;;;;;;5055409;28;20098;-69
2023/09/22 09:38:06;;;;;;;22.17;20.25;;;22.20;99.90;;;;;;5054355;28;20075;-69
2023/09/22 09:40:37;;;;;;;23.67;21.75;;;22.10;99.90;;;;;;5060155;28;20518;-67
2023/09/22 09:43:06;;;;;;;25.20;23.00;;;22.20;99.90;;;;;;5062343;28;20032;-63
2023/09/22 09:45:34;;;;;;;27.67;25.38;;;22.20;99.90;;;;;;5059480;28;20048;-65
2023/09/22 09:48:02;;;;;;;29.35;26.92;;;21.80;99.90;;;;;;5055927;28;20047;-63
2023/09/22 09:50:28;;;;;;;29.80;27.10;;;21.60;99.90;;;;;;5057607;28;20056;-62
2023/09/22 09:52:57;;;;;;;31.02;28.25;;;21.50;99.90;;;;;;5054146;28;20052;-63
2023/09/22 09:55:26;;;;;;;32.50;29.38;;;21.30;99.90;;;;;;5054327;28;20097;-64
2023/09/22 09:57:53;;;;;;;28.88;26.27;;;21.40;99.90;;;;;;5055407;28;20125;-63
2023/09/22 10:00:19;;;;;;;30.30;27.60;;;21.40;99.90;;;;;;5056252;28;20048;-63
2023/09/22 10:02:50;;;;;;;29.20;26.42;;;21.80;99.90;;;;;;5054887;28;20479;-64
2023/09/22 10:05:22;;;;;;;29.83;27.23;;;21.70;99.90;;;;;;5055135;28;20044;-63
2023/09/22 10:07:51;;;;;;;30.60;27.90;;;21.70;99.90;;;;;;5056354;28;20044;-64
2023/09/22 10:10:19;;;;;;;29.63;27.02;;;22.60;99.90;;;;;;5056258;28;20048;-63
2023/09/22 10:12:46;;;;;;;29.60;26.85;;;21.80;99.90;;;;;;5054513;28;20052;-64
2023/09/22 10:15:12;;;;;;;31.90;29.15;;;21.80;99.90;;;;;;5057564;28;20048;-63
2023/09/22 10:17:38;;;;;;;30.33;27.63;;;22.20;99.90;;;;;;5057047;28;20072;-66
2023/09/22 10:20:13;;;;;;;31.50;28.70;;;21.60;99.90;;;;;;5057874;28;20129;-66
2023/09/22 10:22:39;;;;;;;35.17;32.03;;;21.60;99.90;;;;;;5054792;28;20048;-64
2023/09/22 10:25:14;;;;;;;33.63;30.67;;;21.50;99.90;;;;;;5053100;28;20531;-63
2023/09/22 10:28:01;;;;;;;35.72;32.45;;;21.40;99.90;;;;;;5052916;28;21179;-65
2023/09/22 10:30:44;;;;;;;34.83;31.73;;;22.40;99.90;;;;;;5055197;28;20040;-62
2023/09/22 10:33:16;;;;;;;36.40;33.10;;;22.10;99.90;;;;;;5057041;28;20041;-63
2023/09/22 10:35:42;;;;;;;37.03;33.67;;;22.40;99.90;;;;;;5056762;28;20113;-65
2023/09/22 10:38:10;;;;;;;35.13;32.13;;;21.80;99.90;;;;;;5053380;28;20080;-64
2023/09/22 10:40:36;;;;;;;35.15;29.85;;;22.60;99.90;;;;;;5056108;28;20537;-64
2023/09/22 10:43:03;;;;;;;31.70;28.77;;;21.80;99.90;;;;;;5053653;28;20036;-65
2023/09/22 10:45:29;;;;;;;29.15;26.77;;;22.20;99.90;;;;;;5055115;28;20041;-62
2023/09/22 10:47:57;;;;;;;25.50;23.50;;;21.80;99.90;;;;;;5055505;28;20131;-62
2023/09/22 10:50:31;;;;;;;27.02;24.63;;;22.00;99.90;;;;;;5054594;28;20142;-63
2023/09/22 10:53:04;;;;;;;29.20;26.90;;;22.40;99.90;;;;;;5053247;28;20120;-66
2023/09/22 10:55:38;;;;;;;26.63;24.40;;;22.40;99.90;;;;;;5053574;28;20037;-62
2023/09/22 10:58:04;;;;;;;26.00;23.83;;;21.90;99.90;;;;;;5051764;28;20053;-62
2023/09/22 11:00:32;;;;;;;26.77;24.40;;;21.80;99.90;;;;;;5055657;28;20044;-65
2023/09/22 11:03:14;;;;;;;31.55;28.65;;;22.10;99.90;;;;;;5055556;28;20127;-62
2023/09/22 11:05:42;;;;;;;32.75;30.05;;;21.80;99.90;;;;;;5052156;28;20602;-66
2023/09/22 11:08:14;;;;;;;34.25;31.35;;;21.50;99.90;;;;;;5054210;28;20127;-63
2023/09/22 11:10:44;;;;;;;36.30;32.92;;;21.50;99.90;;;;;;5037873;28;20054;-66
2023/09/22 11:13:11;;;;;;;35.95;32.88;;;21.90;99.90;;;;;;5058544;28;20049;-62
2023/09/22 11:15:46;;;;;;;34.88;31.77;;;21.80;99.90;;;;;;5059491;28;20086;-62
2023/09/22 11:18:20;;;;;;;36.23;33.13;;;21.50;99.90;;;;;;5058250;28;20044;-62
2023/09/22 11:20:46;;;;;;;34.72;31.73;;;22.00;99.90;;;;;;5056803;28;20301;-63
2023/09/22 11:23:12;;;;;;;35.97;32.88;;;21.70;99.90;;;;;;5060485;28;20044;-61
2023/09/22 11:25:37;;;;;;;37.15;33.83;;;21.00;99.90;;;;;;5059760;28;20040;-62
2023/09/22 11:28:04;;;;;;;37.40;34.30;;;21.10;99.90;;;;;;5059307;28;20049;-62
2023/09/22 11:30:33;;;;;;;37.50;34.50;;;21.00;99.90;;;;;;5060465;28;20471;-63
2023/09/22 11:32:59;;;;;;;38.15;34.83;;;21.90;99.90;;;;;;5061031;28;20125;-62
2023/09/22 11:35:39;;;;;;;39.63;36.22;;;21.40;99.90;;;;;;5056790;28;20045;-64
2023/09/22 11:38:25;;;;;;;37.75;34.55;;;21.80;99.90;;;;;;5060172;28;20129;-63
2023/09/22 11:41:16;;;;;;;38.63;35.42;;;21.60;99.90;;;;;;5053071;28;20661;-63
2023/09/22 11:43:42;;;;;;;36.30;33.25;;;21.30;99.90;;;;;;5057313;28;20044;-62
2023/09/22 11:46:15;;;;;;;37.60;34.33;;;22.50;99.90;;;;;;5059690;28;20095;-62
2023/09/22 11:49:04;;;;;;;38.63;35.50;;;21.50;99.90;;;;;;5058011;28;20068;-63
2023/09/22 11:51:50;;;;;;;37.42;34.42;;;22.70;99.90;;;;;;5060405;28;20518;-63
2023/09/22 11:54:28;;;;;;;36.38;33.30;;;21.70;99.90;;;;;;5062789;28;20137;-65
2023/09/22 11:56:57;;;;;;;32.78;29.98;;;22.80;99.90;;;;;;5048343;28;20040;-64
2023/09/22 11:59:26;;;;;;;33.70;30.90;;;21.80;99.90;;;;;;5059999;28;20506;-65
2023/09/22 12:01:52;;;;;;;31.67;29.17;;;23.20;99.90;;;;;;5059500;28;20041;-63
2023/09/22 12:04:22;;;;;;;31.52;28.92;;;23.40;99.90;;;;;;5061444;28;20051;-65
2023/09/22 12:06:49;;;;;;;31.00;28.20;;;22.40;99.90;;;;;;5057615;28;20511;-66
2023/09/22 12:09:15;;;;;;;27.27;24.98;;;23.70;99.90;;;;;;5058856;28;20635;-66
2023/09/22 12:11:42;;;;;;;25.25;23.25;;;23.80;99.90;;;;;;5058204;28;20045;-66
2023/09/22 12:14:09;;;;;;;22.73;20.52;;;23.60;99.90;;;;;;5060411;28;20053;-66
2023/09/22 12:16:35;;;;;;;25.92;23.85;;;22.80;99.90;;;;;;5058986;28;20509;-66
2023/09/22 12:19:01;;;;;;;24.98;22.88;;;22.90;99.90;;;;;;5056567;28;20041;-66
2023/09/22 12:21:28;;;;;;;25.70;23.50;;;22.50;99.90;;;;;;5059403;28;20085;-66
2023/09/22 12:23:53;;;;;;;26.67;24.45;;;23.20;99.90;;;;;;5057761;28;20135;-66
2023/09/22 12:26:20;;;;;;;24.65;22.75;;;23.60;99.90;;;;;;5055540;28;20119;-66
2023/09/22 12:28:46;;;;;;;27.08;24.83;;;23.30;99.90;;;;;;5054967;28;20053;-66